createdAt,value
2023-05-15T00:00:50.654Z,37.60
2023-05-15T00:01:50.704Z,37.61
2023-05-15T00:02:50.874Z,37.59
2023-05-15T00:03:50.867Z,37.63
2023-05-15T00:04:50.934Z,37.59
2023-05-15T00:05:50.964Z,37.59
2023-05-15T00:06:51.017Z,37.57
2023-05-15T00:07:51.064Z,37.62
2023-05-15T00:08:51.120Z,37.59
2023-05-15T00:09:51.166Z,37.60
2023-05-15T00:11:01.076Z,37.59
2023-05-15T00:11:51.238Z,37.65
2023-05-15T00:12:51.202Z,37.56
2023-05-15T00:13:51.233Z,37.63
2023-05-15T00:14:51.189Z,37.61
2023-05-15T00:15:51.189Z,37.65
2023-05-15T00:16:51.177Z,37.62
2023-05-15T00:17:51.184Z,37.63
2023-05-15T00:18:51.205Z,37.57
2023-05-15T00:19:51.167Z,37.61
2023-05-15T00:20:51.143Z,37.66
2023-05-15T00:21:51.147Z,37.65
2023-05-15T00:22:51.140Z,37.66
2023-05-15T00:23:51.131Z,37.63
2023-05-15T00:24:51.122Z,37.65
2023-05-15T00:25:51.122Z,37.62
2023-05-15T00:26:51.114Z,37.63
2023-05-15T00:27:51.138Z,37.66
2023-05-15T00:28:51.109Z,37.65
2023-05-15T00:29:51.086Z,37.67
2023-05-15T00:30:51.085Z,37.65
2023-05-15T00:31:51.228Z,37.62
2023-05-15T00:32:51.147Z,37.66
2023-05-15T00:33:51.068Z,37.62
2023-05-15T00:34:51.057Z,37.66
2023-05-15T00:35:51.053Z,37.61
2023-05-15T00:36:51.040Z,37.58
2023-05-15T00:37:51.032Z,37.63
2023-05-15T00:38:51.029Z,37.62
2023-05-15T00:39:51.019Z,37.61
2023-05-15T00:40:51.017Z,37.65
2023-05-15T00:41:51.010Z,37.61
2023-05-15T00:42:51.013Z,37.66
2023-05-15T00:43:51.018Z,37.66
2023-05-15T00:44:50.991Z,37.66
2023-05-15T00:45:50.981Z,37.63
2023-05-15T00:46:51.021Z,37.67
2023-05-15T00:47:51.051Z,37.66
2023-05-15T00:48:50.971Z,37.67
2023-05-15T00:49:50.964Z,37.63
2023-05-15T00:50:50.954Z,37.65
2023-05-15T00:51:50.938Z,37.66
2023-05-15T00:52:50.932Z,37.63
2023-05-15T00:53:50.964Z,37.69
2023-05-15T00:54:50.928Z,37.62
2023-05-15T00:55:50.921Z,37.67
2023-05-15T00:56:50.930Z,37.62
2023-05-15T00:57:50.950Z,37.63
2023-05-15T00:58:50.960Z,37.61
2023-05-15T00:59:51.000Z,37.63
2023-05-15T01:00:51.029Z,37.66
2023-05-15T01:01:51.004Z,37.63
2023-05-15T01:02:51.118Z,37.61
2023-05-15T01:03:51.047Z,37.65
2023-05-15T01:04:51.055Z,37.66
2023-05-15T01:05:51.064Z,37.62
2023-05-15T01:06:51.086Z,37.61
2023-05-15T01:07:51.123Z,37.58
2023-05-15T01:08:51.137Z,37.64
2023-05-15T01:09:51.164Z,37.65
2023-05-15T01:10:51.176Z,37.63
2023-05-15T01:11:51.200Z,37.59
2023-05-15T01:12:51.216Z,37.64
2023-05-15T01:13:51.239Z,37.65
2023-05-15T01:14:51.275Z,37.62
2023-05-15T01:15:51.336Z,37.65
2023-05-15T01:16:51.354Z,37.64
2023-05-15T01:17:51.394Z,37.59
2023-05-15T01:18:51.511Z,37.62
2023-05-15T01:19:51.603Z,37.61
2023-05-15T01:20:51.444Z,37.62
2023-05-15T01:21:51.481Z,37.61
2023-05-15T01:22:51.499Z,37.64
2023-05-15T01:23:51.516Z,37.61
2023-05-15T01:24:51.544Z,37.60
2023-05-15T01:25:51.563Z,37.63
2023-05-15T01:26:51.583Z,37.58
2023-05-15T01:27:51.628Z,37.63
2023-05-15T01:28:51.620Z,37.62
2023-05-15T01:29:51.626Z,37.66
2023-05-15T01:30:51.659Z,37.59
2023-05-15T01:31:51.733Z,37.58
2023-05-15T01:32:51.758Z,37.59
2023-05-15T01:33:51.742Z,37.62
2023-05-15T01:34:51.742Z,37.62
2023-05-15T01:35:51.764Z,37.60
2023-05-15T01:36:51.787Z,37.58
2023-05-15T01:37:51.789Z,37.60
2023-05-15T01:38:51.791Z,37.59
2023-05-15T01:39:51.808Z,37.59
2023-05-15T01:40:51.812Z,37.59
2023-05-15T01:41:51.841Z,37.61
2023-05-15T01:42:51.858Z,37.59
2023-05-15T01:43:51.892Z,37.64
2023-05-15T01:44:51.917Z,37.59
2023-05-15T01:45:51.980Z,37.58
2023-05-15T01:46:51.993Z,37.59
2023-05-15T01:47:52.104Z,37.58
2023-05-15T01:48:51.994Z,37.58
2023-05-15T01:49:52.008Z,37.58
2023-05-15T01:50:52.038Z,37.58
2023-05-15T01:51:52.060Z,37.55
2023-05-15T01:52:52.054Z,37.55
2023-05-15T01:53:52.067Z,37.58
2023-05-15T01:54:52.075Z,37.57
2023-05-15T01:55:52.085Z,37.56
2023-05-15T01:56:52.106Z,37.56
2023-05-15T01:57:52.132Z,37.56
2023-05-15T01:58:52.132Z,37.58
2023-05-15T01:59:52.143Z,37.59
2023-05-15T02:00:52.163Z,37.60
2023-05-15T02:01:52.209Z,37.58
2023-05-15T02:02:52.259Z,37.59
2023-05-15T02:03:52.317Z,37.60
2023-05-15T02:04:52.212Z,37.58
2023-05-15T02:05:52.229Z,37.58
2023-05-15T02:06:52.252Z,37.59
2023-05-15T02:07:52.258Z,37.55
2023-05-15T02:08:52.282Z,37.56
2023-05-15T02:09:52.299Z,37.59
2023-05-15T02:10:52.313Z,37.55
2023-05-15T02:11:52.324Z,37.55
2023-05-15T02:12:52.351Z,37.57
2023-05-15T02:13:52.359Z,37.55
2023-05-15T02:14:52.364Z,37.59
2023-05-15T02:15:52.437Z,37.59
2023-05-15T02:16:52.390Z,37.56
2023-05-15T02:17:52.472Z,37.55
2023-05-15T02:18:52.464Z,37.56
2023-05-15T02:19:52.450Z,37.56
2023-05-15T02:20:52.438Z,37.55
2023-05-15T02:21:52.949Z,37.56
2023-05-15T02:22:52.448Z,37.54
2023-05-15T02:23:52.443Z,37.55
2023-05-15T02:24:52.441Z,37.55
2023-05-15T02:25:52.453Z,37.54
2023-05-15T02:26:52.465Z,37.49
2023-05-15T02:27:52.459Z,37.54
2023-05-15T02:28:52.489Z,37.54
2023-05-15T02:29:52.469Z,37.55
2023-05-15T02:30:52.474Z,37.53
2023-05-15T02:31:52.618Z,37.54
2023-05-15T02:32:52.485Z,37.57
2023-05-15T02:33:52.475Z,37.54
2023-05-15T02:34:52.459Z,37.56
2023-05-15T02:35:52.478Z,37.51
2023-05-15T02:36:52.481Z,37.50
2023-05-15T02:37:52.468Z,37.55
2023-05-15T02:38:52.489Z,37.56
2023-05-15T02:39:52.466Z,37.50
2023-05-15T02:40:52.508Z,37.54
2023-05-15T02:41:52.457Z,37.51
2023-05-15T02:42:52.471Z,37.52
2023-05-15T02:43:52.471Z,37.52
2023-05-15T02:44:52.467Z,37.55
2023-05-15T02:45:52.490Z,37.52
2023-05-15T02:46:52.508Z,37.56
2023-05-15T02:47:52.499Z,37.55
2023-05-15T02:48:52.460Z,37.54
2023-05-15T02:49:52.471Z,37.54
2023-05-15T02:50:52.477Z,37.55
2023-05-15T02:51:52.510Z,37.54
2023-05-15T02:52:52.479Z,37.53
2023-05-15T02:53:52.542Z,37.55
2023-05-15T02:54:52.484Z,37.52
2023-05-15T02:55:52.507Z,37.51
2023-05-15T02:56:52.505Z,37.52
2023-05-15T02:57:52.511Z,37.57
2023-05-15T02:58:52.509Z,37.55
2023-05-15T02:59:52.513Z,37.55
2023-05-15T03:00:52.593Z,37.51
2023-05-15T03:01:52.507Z,37.55
2023-05-15T03:02:52.522Z,37.51
2023-05-15T03:03:52.546Z,37.54
2023-05-15T03:04:52.507Z,37.53
2023-05-15T03:05:52.622Z,37.57
2023-05-15T03:06:52.494Z,37.56
2023-05-15T03:07:52.522Z,37.52
2023-05-15T03:08:52.492Z,37.50
2023-05-15T03:09:52.497Z,37.50
2023-05-15T03:10:52.597Z,37.52
2023-05-15T03:11:52.497Z,37.55
2023-05-15T03:12:52.463Z,37.52
2023-05-15T03:13:52.471Z,37.55
2023-05-15T03:14:52.468Z,37.50
2023-05-15T03:15:52.461Z,37.51
2023-05-15T03:16:52.485Z,37.55
2023-05-15T03:17:52.473Z,37.55
2023-05-15T03:18:52.493Z,37.56
2023-05-15T03:19:52.467Z,37.51
2023-05-15T03:20:52.449Z,37.56
2023-05-15T03:21:52.450Z,37.53
2023-05-15T03:22:52.463Z,37.52
2023-05-15T03:23:52.472Z,37.53
2023-05-15T03:24:52.451Z,37.56
2023-05-15T03:25:52.461Z,37.51
2023-05-15T03:26:52.434Z,37.56
2023-05-15T03:27:52.433Z,37.57
2023-05-15T03:28:52.426Z,37.53
2023-05-15T03:29:52.416Z,37.51
2023-05-15T03:30:52.426Z,37.50
2023-05-15T03:31:52.540Z,37.55
2023-05-15T03:32:52.514Z,37.53
2023-05-15T03:33:52.405Z,37.51
2023-05-15T03:34:52.452Z,37.53
2023-05-15T03:35:52.418Z,37.53
2023-05-15T03:36:52.404Z,37.53
2023-05-15T03:37:52.392Z,37.51
2023-05-15T03:38:52.387Z,37.52
2023-05-15T03:39:52.424Z,37.53
2023-05-15T03:40:52.383Z,37.52
2023-05-15T03:41:52.394Z,37.48
2023-05-15T03:42:52.383Z,37.50
2023-05-15T03:43:52.377Z,37.51
2023-05-15T03:44:52.376Z,37.47
2023-05-15T03:45:52.376Z,37.52
2023-05-15T03:46:52.435Z,37.50
2023-05-15T03:47:52.410Z,37.52
2023-05-15T03:48:52.362Z,37.50
2023-05-15T03:49:52.371Z,37.51
2023-05-15T03:50:52.384Z,37.51
2023-05-15T03:51:52.363Z,37.52
2023-05-15T03:52:52.366Z,37.53
2023-05-15T03:53:52.365Z,37.52
2023-05-15T03:54:52.374Z,37.52
2023-05-15T03:55:52.403Z,37.45
2023-05-15T03:56:52.346Z,37.50
2023-05-15T03:57:52.350Z,37.53
2023-05-15T03:58:52.346Z,37.53
2023-05-15T03:59:52.334Z,37.55
2023-05-15T04:00:52.348Z,37.48
2023-05-15T04:02:03.662Z,37.50
2023-05-15T04:02:52.435Z,37.48
2023-05-15T04:03:52.312Z,37.45
2023-05-15T04:04:52.367Z,37.52
2023-05-15T04:05:52.295Z,37.48
2023-05-15T04:06:52.327Z,37.52
2023-05-15T04:07:52.285Z,37.52
2023-05-15T04:08:52.275Z,37.48
2023-05-15T04:09:52.282Z,37.50
2023-05-15T04:10:52.268Z,37.51
2023-05-15T04:11:52.291Z,37.52
2023-05-15T04:12:52.259Z,37.48
2023-05-15T04:13:52.253Z,37.47
2023-05-15T04:14:52.253Z,37.52
2023-05-15T04:15:52.242Z,37.52
2023-05-15T04:16:52.298Z,37.48
2023-05-15T04:17:52.280Z,37.50
2023-05-15T04:18:52.273Z,37.50
2023-05-15T04:19:52.210Z,37.51
2023-05-15T04:20:52.212Z,37.48
2023-05-15T04:21:52.206Z,37.50
2023-05-15T04:22:52.196Z,37.51
2023-05-15T04:23:52.189Z,37.52
2023-05-15T04:24:52.181Z,37.50
2023-05-15T04:25:52.173Z,37.50
2023-05-15T04:26:52.205Z,37.50
2023-05-15T04:27:52.205Z,37.50
2023-05-15T04:29:02.847Z,37.49
2023-05-15T04:29:52.142Z,37.49
2023-05-15T04:30:52.151Z,37.49
2023-05-15T04:31:52.180Z,37.49
2023-05-15T04:32:52.249Z,37.50
2023-05-15T04:33:52.118Z,37.46
2023-05-15T04:34:52.104Z,37.50
2023-05-15T04:35:52.105Z,37.50
2023-05-15T04:36:52.097Z,37.45
2023-05-15T04:37:52.089Z,37.51
2023-05-15T04:38:52.097Z,37.51
2023-05-15T04:39:52.087Z,37.50
2023-05-15T04:40:52.059Z,37.48
2023-05-15T04:41:52.058Z,37.48
2023-05-15T04:42:52.050Z,37.47
2023-05-15T04:43:52.074Z,37.48
2023-05-15T04:44:52.040Z,37.48
2023-05-15T04:45:52.054Z,37.50
2023-05-15T04:46:52.069Z,37.48
2023-05-15T04:47:52.052Z,37.46
2023-05-15T04:48:52.004Z,37.51
2023-05-15T04:49:51.999Z,37.48
2023-05-15T04:50:52.018Z,37.50
2023-05-15T04:51:51.984Z,37.50
2023-05-15T04:52:52.003Z,37.48
2023-05-15T04:53:51.963Z,37.50
2023-05-15T04:54:51.960Z,37.50
2023-05-15T04:55:51.953Z,37.47
2023-05-15T04:56:51.950Z,37.47
2023-05-15T04:57:51.955Z,37.47
2023-05-15T04:58:51.929Z,37.52
2023-05-15T04:59:52.013Z,37.49
2023-05-15T05:00:51.928Z,37.45
2023-05-15T05:01:51.947Z,37.47
2023-05-15T05:02:51.941Z,37.47
2023-05-15T05:03:51.974Z,37.47
2023-05-15T05:04:51.907Z,37.45
2023-05-15T05:05:51.889Z,37.42
2023-05-15T05:06:52.022Z,37.48
2023-05-15T05:07:51.883Z,37.47
2023-05-15T05:08:51.867Z,37.45
2023-05-15T05:09:51.877Z,37.47
2023-05-15T05:10:51.854Z,37.47
2023-05-15T05:11:51.859Z,37.43
2023-05-15T05:12:51.838Z,37.50
2023-05-15T05:13:51.837Z,37.46
2023-05-15T05:14:51.824Z,37.48
2023-05-15T05:15:51.902Z,37.43
2023-05-15T05:16:51.834Z,37.49
2023-05-15T05:17:51.828Z,37.41
2023-05-15T05:18:51.836Z,37.44
2023-05-15T05:19:51.802Z,37.52
2023-05-15T05:20:51.797Z,37.45
2023-05-15T05:21:52.056Z,37.47
2023-05-15T05:22:51.777Z,37.46
2023-05-15T05:23:51.767Z,37.43
2023-05-15T05:24:51.758Z,37.44
2023-05-15T05:25:51.763Z,37.56
2023-05-15T05:26:52.023Z,37.57
2023-05-15T05:27:51.749Z,37.59
2023-05-15T05:28:52.022Z,37.65
2023-05-15T05:29:51.733Z,37.59
2023-05-15T05:30:51.725Z,37.65
2023-05-15T05:31:52.152Z,37.64
2023-05-15T05:32:51.806Z,37.74
2023-05-15T05:33:51.753Z,37.77
2023-05-15T05:34:51.704Z,37.77
2023-05-15T05:35:51.721Z,37.73
2023-05-15T05:36:52.032Z,37.75
2023-05-15T05:37:51.679Z,37.80
2023-05-15T05:38:52.026Z,37.77
2023-05-15T05:39:51.658Z,37.83
2023-05-15T05:40:51.645Z,37.89
2023-05-15T05:41:52.049Z,37.88
2023-05-15T05:42:52.024Z,37.89
2023-05-15T05:43:51.626Z,37.90
2023-05-15T05:44:51.614Z,37.92
2023-05-15T05:45:52.619Z,37.92
2023-05-15T05:46:52.120Z,37.93
2023-05-15T05:47:51.659Z,37.96
2023-05-15T05:48:51.587Z,38.02
2023-05-15T05:49:51.579Z,38.02
2023-05-15T05:50:51.569Z,38.04
2023-05-15T05:51:52.084Z,38.02
2023-05-15T05:52:51.562Z,38.04
2023-05-15T05:53:51.545Z,38.86
2023-05-15T05:54:51.558Z,39.11
2023-05-15T05:55:52.564Z,39.46
2023-05-15T05:56:55.248Z,39.55
2023-05-15T05:57:52.027Z,39.14
2023-05-15T05:59:54.739Z,39.07
2023-05-15T06:00:51.539Z,39.11
2023-05-15T06:02:07.207Z,39.28
2023-05-15T06:02:51.810Z,39.41
2023-05-15T06:03:51.781Z,39.39
2023-05-15T06:05:07.118Z,39.37
2023-05-15T06:05:51.511Z,39.35
2023-05-15T06:08:58.872Z,39.35
2023-05-15T06:09:58.893Z,39.33
2023-05-15T06:10:58.874Z,39.35
2023-05-15T06:11:54.906Z,39.41
2023-05-15T06:12:51.452Z,39.41
2023-05-15T06:13:51.468Z,39.47
2023-05-15T06:14:51.905Z,39.46
2023-05-15T06:15:51.417Z,39.51
2023-05-15T06:16:51.520Z,39.55
2023-05-15T06:17:51.443Z,39.54
2023-05-15T06:18:51.446Z,39.59
2023-05-15T06:19:51.433Z,39.63
2023-05-15T06:20:51.382Z,39.65
2023-05-15T06:21:51.543Z,39.69
2023-05-15T06:22:58.935Z,39.76
2023-05-15T06:23:51.362Z,39.78
2023-05-15T06:24:51.351Z,39.73
2023-05-15T06:25:51.353Z,39.80
2023-05-15T06:26:52.481Z,39.82
2023-05-15T06:27:51.346Z,39.83
2023-05-15T06:28:51.332Z,39.87
2023-05-15T06:29:51.317Z,39.88
2023-05-15T06:30:51.322Z,39.86
2023-05-15T06:31:51.545Z,39.91
2023-05-15T06:32:51.573Z,39.92
2023-05-15T06:33:51.307Z,39.99
2023-05-15T06:34:51.297Z,40.00
2023-05-15T06:35:51.307Z,40.00
2023-05-15T06:36:51.547Z,40.07
2023-05-15T06:37:51.267Z,40.06
2023-05-15T06:38:51.258Z,40.07
2023-05-15T06:39:51.252Z,40.05
2023-05-15T06:40:51.558Z,40.07
2023-05-15T06:42:23.369Z,40.07
2023-05-15T06:42:54.495Z,40.07
2023-05-15T06:43:58.953Z,40.13
2023-05-15T06:44:51.219Z,40.09
2023-05-15T06:45:51.208Z,40.07
2023-05-15T06:46:51.613Z,40.14
2023-05-15T06:47:51.216Z,40.18
2023-05-15T06:48:51.186Z,40.18
2023-05-15T06:49:51.173Z,40.16
2023-05-15T06:50:51.194Z,40.11
2023-05-15T06:51:51.592Z,40.16
2023-05-15T06:52:51.155Z,40.17
2023-05-15T06:53:51.615Z,40.19
2023-05-15T06:54:52.626Z,40.21
2023-05-15T06:55:51.154Z,40.25
2023-05-15T06:56:51.600Z,40.24
2023-05-15T06:57:51.136Z,40.25
2023-05-15T06:58:51.122Z,40.24
2023-05-15T06:59:52.148Z,40.22
2023-05-15T07:00:56.293Z,40.23
2023-05-15T07:01:51.688Z,40.18
2023-05-15T07:02:51.132Z,40.20
2023-05-15T07:03:51.082Z,40.16
2023-05-15T07:04:51.118Z,40.18
2023-05-15T07:05:51.563Z,40.23
2023-05-15T07:07:22.888Z,40.25
2023-05-15T07:07:51.051Z,40.22
2023-05-15T07:08:51.041Z,40.24
2023-05-15T07:09:51.027Z,40.19
2023-05-15T07:10:51.060Z,40.21
2023-05-15T07:11:51.034Z,40.19
2023-05-15T07:12:51.017Z,40.19
2023-05-15T07:13:52.521Z,40.23
2023-05-15T07:14:51.217Z,40.23
2023-05-15T07:15:51.571Z,40.25
2023-05-15T07:16:51.266Z,40.21
2023-05-15T07:17:51.287Z,40.23
2023-05-15T07:18:51.298Z,40.27
2023-05-15T07:19:59.486Z,40.19
2023-05-15T07:20:51.570Z,40.27
2023-05-15T07:21:51.201Z,40.25
2023-05-15T07:22:56.184Z,40.25
2023-05-15T07:23:51.182Z,40.20
2023-05-15T07:24:51.170Z,40.24
2023-05-15T07:25:52.161Z,40.22
2023-05-15T07:27:51.781Z,40.25
2023-05-15T07:28:51.405Z,40.19
2023-05-15T07:29:51.854Z,40.22
2023-05-15T07:30:51.494Z,40.15
2023-05-15T07:31:54.936Z,40.20
2023-05-15T07:33:51.123Z,40.18
2023-05-15T07:34:51.111Z,40.16
2023-05-15T07:35:52.134Z,40.16
2023-05-15T07:36:51.581Z,40.18
2023-05-15T07:38:07.040Z,40.19
2023-05-15T07:38:51.070Z,40.37
2023-05-15T07:39:51.069Z,40.25
2023-05-15T07:40:51.061Z,40.24
2023-05-15T07:41:51.097Z,40.31
2023-05-15T07:42:52.108Z,40.38
2023-05-15T07:43:54.370Z,40.47
2023-05-15T07:44:51.050Z,40.59
2023-05-15T07:45:51.177Z,40.65
2023-05-15T07:46:51.040Z,40.66
2023-05-15T07:47:51.180Z,40.78
2023-05-15T07:48:51.006Z,40.78
2023-05-15T07:49:51.005Z,40.75
2023-05-15T07:50:50.996Z,40.92
2023-05-15T07:51:51.003Z,40.89
2023-05-15T07:52:51.082Z,41.04
2023-05-15T07:53:51.146Z,41.34
2023-05-15T07:54:51.036Z,41.32
2023-05-15T07:55:51.043Z,41.28
2023-05-15T07:56:54.289Z,41.29
2023-05-15T07:57:54.339Z,41.45
2023-05-15T07:58:58.371Z,41.44
2023-05-15T07:59:54.164Z,41.58
2023-05-15T08:00:50.949Z,41.57
2023-05-15T08:01:50.904Z,41.74
2023-05-15T08:02:51.226Z,41.74
2023-05-15T08:03:50.987Z,41.87
2023-05-15T08:04:50.889Z,41.84
2023-05-15T08:05:50.885Z,42.02
2023-05-15T08:06:50.870Z,42.10
2023-05-15T08:07:51.095Z,42.17
2023-05-15T08:08:50.851Z,42.17
2023-05-15T08:09:50.881Z,42.26
2023-05-15T08:10:50.843Z,42.31
2023-05-15T08:11:50.837Z,42.48
2023-05-15T08:12:51.093Z,42.53
2023-05-15T08:13:50.836Z,42.60
2023-05-15T08:14:50.802Z,42.60
2023-05-15T08:15:50.832Z,42.64
2023-05-15T08:16:50.794Z,42.73
2023-05-15T08:17:52.166Z,42.84
2023-05-15T08:18:50.853Z,42.88
2023-05-15T08:19:50.779Z,42.96
2023-05-15T08:20:50.772Z,42.98
2023-05-15T08:21:50.800Z,43.11
2023-05-15T08:22:50.807Z,43.15
2023-05-15T08:23:53.600Z,43.19
2023-05-15T08:24:50.823Z,43.27
2023-05-15T08:25:50.851Z,43.28
2023-05-15T08:26:50.806Z,43.44
2023-05-15T08:27:51.092Z,43.52
2023-05-15T08:28:50.802Z,43.51
2023-05-15T08:29:54.312Z,43.71
2023-05-15T08:30:50.804Z,43.72
2023-05-15T08:31:50.821Z,43.80
2023-05-15T08:32:51.147Z,43.84
2023-05-15T08:33:50.757Z,43.93
2023-05-15T08:34:51.453Z,44.00
2023-05-15T08:35:50.794Z,44.07
2023-05-15T08:36:50.731Z,44.42
2023-05-15T08:37:50.741Z,44.23
2023-05-15T08:38:50.734Z,44.26
2023-05-15T08:39:51.107Z,44.23
2023-05-15T08:40:51.714Z,44.22
2023-05-15T08:41:50.817Z,44.25
2023-05-15T08:42:50.688Z,45.28
2023-05-15T08:43:50.677Z,44.98
2023-05-15T08:44:52.113Z,45.06
2023-05-15T08:45:50.679Z,44.89
2023-05-15T08:47:58.125Z,45.02
2023-05-15T08:48:50.717Z,45.01
2023-05-15T08:49:50.677Z,45.02
2023-05-15T08:50:50.671Z,45.11
2023-05-15T08:51:50.614Z,45.16
2023-05-15T08:52:51.105Z,45.26
2023-05-15T08:53:50.611Z,45.27
2023-05-15T08:54:50.616Z,45.35
2023-05-15T08:55:50.598Z,45.38
2023-05-15T08:56:50.590Z,45.48
2023-05-15T08:57:50.638Z,45.55
2023-05-15T08:58:57.993Z,45.67
2023-05-15T08:59:50.567Z,45.73
2023-05-15T09:00:50.550Z,45.73
2023-05-15T09:01:50.585Z,45.87
2023-05-15T09:02:50.712Z,45.89
2023-05-15T09:03:50.560Z,45.97
2023-05-15T09:04:50.613Z,46.12
2023-05-15T09:05:50.513Z,46.15
2023-05-15T09:06:50.505Z,46.30
2023-05-15T09:07:50.492Z,46.23
2023-05-15T09:08:50.531Z,46.25
2023-05-15T09:09:50.645Z,46.36
2023-05-15T09:10:50.483Z,46.40
2023-05-15T09:11:50.517Z,46.43
2023-05-15T09:12:50.467Z,46.33
2023-05-15T09:13:50.501Z,45.92
2023-05-15T09:14:50.465Z,46.27
2023-05-15T09:15:58.130Z,46.38
2023-05-15T09:16:50.463Z,46.59
2023-05-15T09:17:50.552Z,46.64
2023-05-15T09:18:50.479Z,46.76
2023-05-15T09:19:50.422Z,46.87
2023-05-15T09:20:50.618Z,46.93
2023-05-15T09:21:50.407Z,47.02
2023-05-15T09:22:50.626Z,47.10
2023-05-15T09:23:50.386Z,47.11
2023-05-15T09:24:50.640Z,47.22
2023-05-15T09:25:51.581Z,47.92
2023-05-15T09:26:50.635Z,47.99
2023-05-15T09:27:50.361Z,47.43
2023-05-15T09:28:50.360Z,46.91
2023-05-15T09:29:50.370Z,45.98
2023-05-15T09:30:50.655Z,46.18
2023-05-15T09:31:50.370Z,45.51
2023-05-15T09:32:50.363Z,45.33
2023-05-15T09:34:50.311Z,45.82
2023-05-15T09:35:51.362Z,46.00
2023-05-15T09:36:57.710Z,45.70
2023-05-15T09:37:50.627Z,45.92
2023-05-15T09:38:50.343Z,46.03
2023-05-15T09:39:50.275Z,46.11
2023-05-15T09:40:50.273Z,46.26
2023-05-15T09:41:50.267Z,46.30
2023-05-15T09:42:51.063Z,46.35
2023-05-15T09:43:50.349Z,46.32
2023-05-15T09:44:50.287Z,46.37
2023-05-15T09:45:50.752Z,46.60
2023-05-15T09:46:57.699Z,46.64
2023-05-15T09:47:50.738Z,46.56
2023-05-15T09:48:50.322Z,46.60
2023-05-15T09:49:50.195Z,46.64
2023-05-15T09:50:50.184Z,46.63
2023-05-15T09:51:57.574Z,46.63
2023-05-15T09:52:50.170Z,46.71
2023-05-15T09:53:50.167Z,46.73
2023-05-15T09:54:50.709Z,46.79
2023-05-15T09:55:50.656Z,46.81
2023-05-15T09:56:53.373Z,46.85
2023-05-15T09:57:50.637Z,46.87
2023-05-15T09:58:50.147Z,46.95
2023-05-15T09:59:50.133Z,46.96
2023-05-15T10:00:50.153Z,46.98
2023-05-15T10:01:50.191Z,46.95
2023-05-15T10:02:50.114Z,47.08
2023-05-15T10:03:50.101Z,47.12
2023-05-15T10:04:50.147Z,47.16
2023-05-15T10:05:50.214Z,47.22
2023-05-15T10:06:50.070Z,47.27
2023-05-15T10:07:50.176Z,47.25
2023-05-15T10:08:51.045Z,47.30
2023-05-15T10:09:50.041Z,47.27
2023-05-15T10:10:50.031Z,47.27
2023-05-15T10:11:50.152Z,47.22
2023-05-15T10:12:50.029Z,47.27
2023-05-15T10:13:50.180Z,47.35
2023-05-15T10:14:50.006Z,47.22
2023-05-15T10:15:50.094Z,47.27
2023-05-15T10:16:49.994Z,47.25
2023-05-15T10:17:50.052Z,47.33
2023-05-15T10:18:51.178Z,47.30
2023-05-15T10:19:57.023Z,47.62
2023-05-15T10:20:49.963Z,47.57
2023-05-15T10:21:49.960Z,46.90
2023-05-15T10:22:49.942Z,46.76
2023-05-15T10:23:50.155Z,47.10
2023-05-15T10:24:50.154Z,47.06
2023-05-15T10:25:49.955Z,47.00
2023-05-15T10:26:49.934Z,47.00
2023-05-15T10:27:49.908Z,46.90
2023-05-15T10:28:49.917Z,46.86
2023-05-15T10:29:50.187Z,46.76
2023-05-15T10:30:49.903Z,46.76
2023-05-15T10:31:50.040Z,46.76
2023-05-15T10:32:49.931Z,46.70
2023-05-15T10:33:49.894Z,46.72
2023-05-15T10:34:49.887Z,46.69
2023-05-15T10:35:49.866Z,46.70
2023-05-15T10:36:49.847Z,46.72
2023-05-15T10:37:49.839Z,46.66
2023-05-15T10:38:49.842Z,46.67
2023-05-15T10:39:49.834Z,44.55
2023-05-15T10:40:49.821Z,43.21
2023-05-15T10:41:50.167Z,42.62
2023-05-15T10:42:49.806Z,42.51
2023-05-15T10:43:49.794Z,42.06
2023-05-15T10:44:49.793Z,42.33
2023-05-15T10:45:49.800Z,42.46
2023-05-15T10:46:49.799Z,41.97
2023-05-15T10:47:49.818Z,41.88
2023-05-15T10:48:50.166Z,42.07
2023-05-15T10:49:49.778Z,42.22
2023-05-15T10:50:49.758Z,42.28
2023-05-15T10:51:49.740Z,42.38
2023-05-15T10:52:49.740Z,42.48
2023-05-15T10:53:49.737Z,42.61
2023-05-15T10:54:49.726Z,42.89
2023-05-15T10:55:49.820Z,43.01
2023-05-15T10:56:52.242Z,42.78
2023-05-15T10:57:52.897Z,42.70
2023-05-15T10:58:49.702Z,43.06
2023-05-15T10:59:49.691Z,43.15
2023-05-15T11:00:50.718Z,43.42
2023-05-15T11:01:50.159Z,43.50
2023-05-15T11:02:49.731Z,43.51
2023-05-15T11:03:51.443Z,43.54
2023-05-15T11:04:49.663Z,43.50
2023-05-15T11:05:49.661Z,43.45
2023-05-15T11:06:49.643Z,43.36
2023-05-15T11:07:49.631Z,43.26
2023-05-15T11:08:49.691Z,43.18
2023-05-15T11:09:49.607Z,43.11
2023-05-15T11:10:49.609Z,42.95
2023-05-15T11:11:49.592Z,42.93
2023-05-15T11:12:49.587Z,42.79
2023-05-15T11:13:49.675Z,42.79
2023-05-15T11:14:49.575Z,42.71
2023-05-15T11:15:49.570Z,42.62
2023-05-15T11:16:49.574Z,42.57
2023-05-15T11:17:49.571Z,42.66
2023-05-15T11:18:49.719Z,42.56
2023-05-15T11:19:49.555Z,42.50
2023-05-15T11:22:07.770Z,42.38
2023-05-15T11:23:08.579Z,42.21
2023-05-15T11:24:09.243Z,42.29
2023-05-15T11:25:08.569Z,42.26
2023-05-15T11:26:08.753Z,42.44
2023-05-15T11:27:08.537Z,42.69
2023-05-15T11:28:08.542Z,42.83
2023-05-15T11:29:11.967Z,43.17
2023-05-15T11:30:08.518Z,43.03
2023-05-15T11:31:11.743Z,43.05
2023-05-15T11:32:08.553Z,42.94
2023-05-15T11:33:08.608Z,42.96
2023-05-15T11:34:08.779Z,43.05
2023-05-15T11:35:08.853Z,43.00
2023-05-15T11:36:08.471Z,42.99
2023-05-15T11:37:08.754Z,43.00
2023-05-15T11:38:08.493Z,42.98
2023-05-15T11:39:08.785Z,43.00
2023-05-15T11:40:08.443Z,42.96
2023-05-15T11:41:08.441Z,42.96
2023-05-15T11:42:08.764Z,42.99
2023-05-15T11:43:08.433Z,42.98
2023-05-15T11:44:08.761Z,43.05
2023-05-15T11:45:08.409Z,43.03
2023-05-15T11:46:08.547Z,43.05
2023-05-15T11:47:08.394Z,43.15
2023-05-15T11:48:08.452Z,43.09
2023-05-15T11:49:08.769Z,43.08
2023-05-15T11:50:08.380Z,43.17
2023-05-15T11:51:08.376Z,43.16
2023-05-15T11:52:08.382Z,43.21
2023-05-15T11:53:08.357Z,43.23
2023-05-15T11:54:08.789Z,43.22
2023-05-15T11:55:08.339Z,43.33
2023-05-15T11:56:08.327Z,43.36
2023-05-15T11:57:08.317Z,43.31
2023-05-15T11:58:08.332Z,43.35
2023-05-15T11:59:08.299Z,43.35
2023-05-15T12:00:08.297Z,43.41
2023-05-15T12:01:10.703Z,43.39
2023-05-15T12:02:08.288Z,43.39
2023-05-15T12:03:09.383Z,43.39
2023-05-15T12:04:08.394Z,43.37
2023-05-15T12:06:07.248Z,43.45
2023-05-15T12:07:08.244Z,43.46
2023-05-15T12:08:08.238Z,43.48
2023-05-15T12:09:08.265Z,43.49
2023-05-15T12:10:08.256Z,43.50
2023-05-15T12:11:08.214Z,43.51
2023-05-15T12:12:08.233Z,43.51
2023-05-15T12:13:08.212Z,43.53
2023-05-15T12:14:08.269Z,43.55
2023-05-15T12:15:08.186Z,43.52
2023-05-15T12:16:08.234Z,43.61
2023-05-15T12:17:08.174Z,43.57
2023-05-15T12:18:08.212Z,43.59
2023-05-15T12:19:08.325Z,43.63
2023-05-15T12:20:08.146Z,43.56
2023-05-15T12:21:08.141Z,43.59
2023-05-15T12:22:08.138Z,43.58
2023-05-15T12:23:08.145Z,43.55
2023-05-15T12:24:08.525Z,43.49
2023-05-15T12:25:08.282Z,43.48
2023-05-15T12:26:08.131Z,43.49
2023-05-15T12:27:08.101Z,43.44
2023-05-15T12:28:08.087Z,43.36
2023-05-15T12:29:08.286Z,43.11
2023-05-15T12:30:08.079Z,42.41
2023-05-15T12:31:08.080Z,42.73
2023-05-15T12:32:08.130Z,41.78
2023-05-15T12:33:08.352Z,42.09
2023-05-15T12:34:08.066Z,42.18
2023-05-15T12:35:08.064Z,42.46
2023-05-15T12:36:08.059Z,42.56
2023-05-15T12:37:08.026Z,42.74
2023-05-15T12:38:08.012Z,42.85
2023-05-15T12:39:08.121Z,42.87
2023-05-15T12:40:08.074Z,42.88
2023-05-15T12:41:08.043Z,42.87
2023-05-15T12:42:08.081Z,42.90
2023-05-15T12:43:08.087Z,42.88
2023-05-15T12:44:08.078Z,43.04
2023-05-15T12:45:08.292Z,43.12
2023-05-15T12:46:08.156Z,43.16
2023-05-15T12:47:08.124Z,43.12
2023-05-15T12:48:09.158Z,43.13
2023-05-15T12:49:08.159Z,43.14
2023-05-15T12:50:08.300Z,43.10
2023-05-15T12:51:08.326Z,43.09
2023-05-15T12:52:08.197Z,43.06
2023-05-15T12:53:08.199Z,43.02
2023-05-15T12:54:08.302Z,43.06
2023-05-15T12:55:08.581Z,43.00
2023-05-15T12:56:08.223Z,42.98
2023-05-15T12:57:08.250Z,42.94
2023-05-15T12:58:08.297Z,42.98
2023-05-15T12:59:08.253Z,42.94
2023-05-15T13:00:08.361Z,42.87
2023-05-15T13:01:08.332Z,42.91
2023-05-15T13:02:08.262Z,42.90